createdAt,value
2023-05-04T00:00:03.575Z,95695.00
2023-05-04T00:01:03.301Z,95697.00
2023-05-04T00:02:03.357Z,95695.00
2023-05-04T00:03:03.444Z,95695.00
2023-05-04T00:04:03.511Z,95695.00
2023-05-04T00:05:03.391Z,95695.00
2023-05-04T00:06:03.362Z,95693.00
2023-05-04T00:07:03.377Z,95691.00
2023-05-04T00:08:03.404Z,95689.00
2023-05-04T00:09:03.381Z,95691.00
2023-05-04T00:10:03.742Z,95689.00
2023-05-04T00:11:03.411Z,95689.00
2023-05-04T00:12:03.440Z,95691.00
2023-05-04T00:13:03.538Z,95687.00
2023-05-04T00:14:03.491Z,95691.00
2023-05-04T00:15:03.474Z,95695.00
2023-05-04T00:16:03.554Z,95689.00
2023-05-04T00:17:03.505Z,95693.00
2023-05-04T00:18:03.586Z,95693.00
2023-05-04T00:19:03.620Z,95691.00
2023-05-04T00:20:03.877Z,95695.00
2023-05-04T00:21:03.824Z,95697.00
2023-05-04T00:22:03.847Z,95695.00
2023-05-04T00:23:03.928Z,95695.00
2023-05-04T00:24:04.014Z,95695.00
2023-05-04T00:25:04.083Z,95693.00
2023-05-04T00:26:04.242Z,95693.00
2023-05-04T00:27:04.261Z,95693.00
2023-05-04T00:28:04.314Z,95693.00
2023-05-04T00:29:04.395Z,95691.00
2023-05-04T00:30:04.721Z,95691.00
2023-05-04T00:31:04.543Z,95693.00
2023-05-04T00:32:04.769Z,95693.00
2023-05-04T00:33:04.749Z,95689.00
2023-05-04T00:34:04.777Z,95687.00
2023-05-04T00:35:04.875Z,95687.00
2023-05-04T00:36:04.933Z,95685.00
2023-05-04T00:37:05.021Z,95687.00
2023-05-04T00:38:05.065Z,95685.00
2023-05-04T00:39:05.102Z,95685.00
2023-05-04T00:40:05.419Z,95685.00
2023-05-04T00:41:05.125Z,95685.00
2023-05-04T00:42:05.157Z,95687.00
2023-05-04T00:43:05.175Z,95683.00
2023-05-04T00:44:05.196Z,95683.00
2023-05-04T00:45:05.205Z,95683.00
2023-05-04T00:46:05.457Z,95683.00
2023-05-04T00:47:05.336Z,95685.00
2023-05-04T00:48:05.377Z,95681.00
2023-05-04T00:49:05.350Z,95683.00
2023-05-04T00:50:05.619Z,95679.00
2023-05-04T00:51:05.440Z,95685.00
2023-05-04T00:52:05.491Z,95685.00
2023-05-04T00:53:05.481Z,95683.00
2023-05-04T00:54:05.520Z,95681.00
2023-05-04T00:55:05.551Z,95683.00
2023-05-04T00:56:05.590Z,95679.00
2023-05-04T00:57:05.671Z,95683.00
2023-05-04T00:58:05.657Z,95679.00
2023-05-04T00:59:05.723Z,95679.00
2023-05-04T01:00:06.056Z,95681.00
2023-05-04T01:01:05.814Z,95679.00
2023-05-04T01:02:05.886Z,95679.00
2023-05-04T01:03:05.887Z,95679.00
2023-05-04T01:04:06.043Z,95675.00
2023-05-04T01:05:05.921Z,95677.00
2023-05-04T01:06:05.965Z,95675.00
2023-05-04T01:07:06.013Z,95677.00
2023-05-04T01:08:06.034Z,95675.00
2023-05-04T01:09:06.067Z,95675.00
2023-05-04T01:10:06.346Z,95677.00
2023-05-04T01:11:06.172Z,95675.00
2023-05-04T01:12:06.185Z,95675.00
2023-05-04T01:13:06.245Z,95675.00
2023-05-04T01:14:06.207Z,95675.00
2023-05-04T01:15:06.244Z,95679.00
2023-05-04T01:16:06.282Z,95673.00
2023-05-04T01:17:06.457Z,95671.00
2023-05-04T01:18:06.446Z,95673.00
2023-05-04T01:19:06.394Z,95677.00
2023-05-04T01:20:06.741Z,95671.00
2023-05-04T01:21:06.441Z,95673.00
2023-05-04T01:22:06.481Z,95673.00
2023-05-04T01:23:06.510Z,95675.00
2023-05-04T01:24:06.556Z,95677.00
2023-05-04T01:25:06.613Z,95675.00
2023-05-04T01:26:06.620Z,95679.00
2023-05-04T01:27:06.722Z,95677.00
2023-05-04T01:28:06.684Z,95675.00
2023-05-04T01:29:06.720Z,95675.00
2023-05-04T01:30:06.985Z,95675.00
2023-05-04T01:31:06.863Z,95677.00
2023-05-04T01:32:06.816Z,95677.00
2023-05-04T01:33:06.923Z,95679.00
2023-05-04T01:34:06.987Z,95677.00
2023-05-04T01:35:06.908Z,95679.00
2023-05-04T01:36:06.952Z,95681.00
2023-05-04T01:37:06.998Z,95681.00
2023-05-04T01:38:07.080Z,95681.00
2023-05-04T01:39:07.067Z,95681.00
2023-05-04T01:40:07.171Z,95681.00
2023-05-04T01:41:07.185Z,95681.00
2023-05-04T01:42:07.239Z,95681.00
2023-05-04T01:43:07.461Z,95685.00
2023-05-04T01:44:07.338Z,95683.00
2023-05-04T01:45:07.379Z,95683.00
2023-05-04T01:46:07.431Z,95681.00
2023-05-04T01:47:07.461Z,95681.00
2023-05-04T01:48:07.681Z,95681.00
2023-05-04T01:49:07.587Z,95681.00
2023-05-04T01:50:07.637Z,95681.00
2023-05-04T01:51:07.679Z,95683.00
2023-05-04T01:52:07.740Z,95685.00
2023-05-04T01:53:07.765Z,95683.00
2023-05-04T01:54:07.808Z,95687.00
2023-05-04T01:55:07.862Z,95683.00
2023-05-04T01:56:07.975Z,95687.00
2023-05-04T01:57:07.971Z,95687.00
2023-05-04T01:58:08.007Z,95685.00
2023-05-04T01:59:08.042Z,95685.00
2023-05-04T02:01:14.697Z,95685.00
2023-05-04T02:02:15.713Z,95687.00
2023-05-04T02:03:15.742Z,95687.00
2023-05-04T02:04:15.651Z,95685.00
2023-05-04T02:05:15.667Z,95685.00
2023-05-04T02:06:15.683Z,95685.00
2023-05-04T02:07:15.665Z,95689.00
2023-05-04T02:08:15.664Z,95689.00
2023-05-04T02:09:15.646Z,95685.00
2023-05-04T02:10:15.626Z,95685.00
2023-05-04T02:11:15.613Z,95683.00
2023-05-04T02:12:15.654Z,95685.00
2023-05-04T02:13:15.730Z,95681.00
2023-05-04T02:14:15.636Z,95681.00
2023-05-04T02:15:15.638Z,95677.00
2023-05-04T02:16:15.756Z,95679.00
2023-05-04T02:17:15.654Z,95679.00
2023-05-04T02:18:15.651Z,95677.00
2023-05-04T02:19:15.654Z,95677.00
2023-05-04T02:20:15.660Z,95677.00
2023-05-04T02:21:15.817Z,95677.00
2023-05-04T02:22:15.705Z,95675.00
2023-05-04T02:23:15.676Z,95675.00
2023-05-04T02:24:15.676Z,95675.00
2023-05-04T02:25:15.689Z,95675.00
2023-05-04T02:26:15.688Z,95677.00
2023-05-04T02:27:15.773Z,95675.00
2023-05-04T02:28:15.695Z,95677.00
2023-05-04T02:29:15.698Z,95679.00
2023-05-04T02:30:15.730Z,95681.00
2023-05-04T02:31:15.817Z,95683.00
2023-05-04T02:32:15.844Z,95679.00
2023-05-04T02:33:15.894Z,95681.00
2023-05-04T02:34:15.950Z,95683.00
2023-05-04T02:35:16.009Z,95685.00
2023-05-04T02:36:16.062Z,95685.00
2023-05-04T02:37:16.266Z,95685.00
2023-05-04T02:38:16.193Z,95689.00
2023-05-04T02:39:16.265Z,95687.00
2023-05-04T02:40:16.304Z,95687.00
2023-05-04T02:41:16.363Z,95691.00
2023-05-04T02:42:16.446Z,95689.00
2023-05-04T02:43:16.475Z,95691.00
2023-05-04T02:44:16.582Z,95691.00
2023-05-04T02:45:17.776Z,95691.00
2023-05-04T02:46:16.787Z,95693.00
2023-05-04T02:47:16.744Z,95693.00
2023-05-04T02:48:16.806Z,95693.00
2023-05-04T02:49:16.926Z,95691.00
2023-05-04T02:50:16.931Z,95695.00
2023-05-04T02:51:16.984Z,95691.00
2023-05-04T02:52:17.068Z,95697.00
2023-05-04T02:53:17.133Z,95697.00
2023-05-04T02:54:17.146Z,95699.00
2023-05-04T02:55:17.196Z,95697.00
2023-05-04T02:56:17.262Z,95697.00
2023-05-04T02:57:17.353Z,95699.00
2023-05-04T02:58:17.387Z,95699.00
2023-05-04T02:59:17.451Z,95697.00
2023-05-04T03:00:17.520Z,95699.00
2023-05-04T03:01:17.666Z,95699.00
2023-05-04T03:02:17.691Z,95699.00
2023-05-04T03:03:17.721Z,95697.00
2023-05-04T03:04:17.842Z,95695.00
2023-05-04T03:05:17.873Z,95693.00
2023-05-04T03:06:17.931Z,95695.00
2023-05-04T03:07:18.203Z,95695.00
2023-05-04T03:08:18.917Z,95697.00
2023-05-04T03:09:18.208Z,95697.00
2023-05-04T03:10:18.226Z,95697.00
2023-05-04T03:11:18.314Z,95699.00
2023-05-04T03:12:18.387Z,95701.00
2023-05-04T03:13:18.517Z,95699.00
2023-05-04T03:14:18.552Z,95699.00
2023-05-04T03:15:18.668Z,95699.00
2023-05-04T03:16:18.762Z,95701.00
2023-05-04T03:17:18.791Z,95699.00
2023-05-04T03:18:18.891Z,95701.00
2023-05-04T03:19:19.024Z,95701.00
2023-05-04T03:20:19.023Z,95701.00
2023-05-04T03:21:19.128Z,95702.00
2023-05-04T03:22:19.196Z,95702.00
2023-05-04T03:23:19.271Z,95699.00
2023-05-04T03:24:19.365Z,95701.00
2023-05-04T03:25:19.438Z,95706.00
2023-05-04T03:26:19.466Z,95702.00
2023-05-04T03:27:19.506Z,95704.00
2023-05-04T03:28:19.580Z,95702.00
2023-05-04T03:29:19.670Z,95704.00
2023-05-04T03:30:19.658Z,95704.00
2023-05-04T03:31:19.783Z,95699.00
2023-05-04T03:32:19.731Z,95699.00
2023-05-04T03:33:19.775Z,95699.00
2023-05-04T03:34:19.840Z,95701.00
2023-05-04T03:35:24.697Z,95699.00
2023-05-04T03:36:19.924Z,95699.00
2023-05-04T03:37:19.934Z,95697.00
2023-05-04T03:38:19.958Z,95697.00
2023-05-04T03:39:19.976Z,95695.00
2023-05-04T03:40:20.002Z,95695.00
2023-05-04T03:41:20.139Z,95691.00
2023-05-04T03:42:20.039Z,95695.00
2023-05-04T03:43:20.106Z,95697.00
2023-05-04T03:44:20.096Z,95697.00
2023-05-04T03:45:20.092Z,95693.00
2023-05-04T03:46:20.173Z,95697.00
2023-05-04T03:47:20.132Z,95697.00
2023-05-04T03:48:20.158Z,95699.00
2023-05-04T03:49:20.166Z,95699.00
2023-05-04T03:50:20.184Z,95701.00
2023-05-04T03:51:20.205Z,95701.00
2023-05-04T03:52:20.211Z,95701.00
2023-05-04T03:53:20.233Z,95702.00
2023-05-04T03:54:20.243Z,95704.00
2023-05-04T03:55:20.270Z,95702.00
2023-05-04T03:56:20.275Z,95702.00
2023-05-04T03:57:20.359Z,95706.00
2023-05-04T03:58:20.302Z,95704.00
2023-05-04T03:59:20.335Z,95702.00
2023-05-04T04:00:20.319Z,95704.00
2023-05-04T04:01:20.342Z,95704.00
2023-05-04T04:02:20.400Z,95704.00
2023-05-04T04:03:20.461Z,95708.00
2023-05-04T04:04:20.384Z,95704.00
2023-05-04T04:05:20.389Z,95704.00
2023-05-04T04:06:20.415Z,95704.00
2023-05-04T04:07:20.427Z,95702.00
2023-05-04T04:08:20.471Z,95704.00
2023-05-04T04:09:20.475Z,95702.00
2023-05-04T04:10:20.517Z,95704.00
2023-05-04T04:11:20.518Z,95702.00
2023-05-04T04:12:20.556Z,95702.00
2023-05-04T04:13:20.687Z,95704.00
2023-05-04T04:14:20.584Z,95704.00
2023-05-04T04:15:20.604Z,95704.00
2023-05-04T04:16:20.692Z,95706.00
2023-05-04T04:17:20.630Z,95706.00
2023-05-04T04:18:20.637Z,95708.00
2023-05-04T04:19:20.642Z,95706.00
2023-05-04T04:20:20.661Z,95706.00
2023-05-04T04:21:20.708Z,95706.00
2023-05-04T04:22:20.723Z,95708.00
2023-05-04T04:23:20.718Z,95710.00
2023-05-04T04:24:20.737Z,95710.00
2023-05-04T04:25:20.753Z,95712.00
2023-05-04T04:26:20.772Z,95710.00
2023-05-04T04:27:20.787Z,95712.00
2023-05-04T04:28:20.815Z,95710.00
2023-05-04T04:29:20.841Z,95714.00
2023-05-04T04:30:20.831Z,95712.00
2023-05-04T04:31:20.892Z,95716.00
2023-05-04T04:32:20.852Z,95714.00
2023-05-04T04:33:20.873Z,95714.00
2023-05-04T04:34:20.897Z,95714.00
2023-05-04T04:35:20.895Z,95714.00
2023-05-04T04:36:20.894Z,95714.00
2023-05-04T04:37:20.896Z,95714.00
2023-05-04T04:38:20.905Z,95712.00
2023-05-04T04:39:20.941Z,95710.00
2023-05-04T04:40:20.930Z,95708.00
2023-05-04T04:41:20.985Z,95712.00
2023-05-04T04:42:21.068Z,95712.00
2023-05-04T04:43:21.124Z,95712.00
2023-05-04T04:44:21.176Z,95712.00
2023-05-04T04:45:21.241Z,95712.00
2023-05-04T04:46:21.373Z,95714.00
2023-05-04T04:47:21.339Z,95712.00
2023-05-04T04:48:21.379Z,95712.00
2023-05-04T04:49:21.414Z,95716.00
2023-05-04T04:50:21.498Z,95716.00
2023-05-04T04:51:21.552Z,95716.00
2023-05-04T04:52:21.619Z,95716.00
2023-05-04T04:53:21.679Z,95716.00
2023-05-04T04:54:21.748Z,95716.00
2023-05-04T04:55:21.843Z,95714.00
2023-05-04T04:56:21.856Z,95716.00
2023-05-04T04:57:21.940Z,95714.00
2023-05-04T04:58:22.139Z,95712.00
2023-05-04T04:59:22.025Z,95714.00
2023-05-04T05:00:22.083Z,95718.00
2023-05-04T05:01:22.269Z,95716.00
2023-05-04T05:02:22.203Z,95716.00
2023-05-04T05:03:22.264Z,95718.00
2023-05-04T05:04:22.384Z,95716.00
2023-05-04T05:05:22.364Z,95720.00
2023-05-04T05:06:22.402Z,95718.00
2023-05-04T05:07:22.445Z,95718.00
2023-05-04T05:08:22.480Z,95718.00
2023-05-04T05:09:22.509Z,95722.00
2023-05-04T05:10:22.520Z,95718.00
2023-05-04T05:11:22.562Z,95718.00
2023-05-04T05:12:22.567Z,95720.00
2023-05-04T05:13:22.563Z,95720.00
2023-05-04T05:14:22.572Z,95718.00
2023-05-04T05:15:22.575Z,95720.00
2023-05-04T05:16:22.593Z,95718.00
2023-05-04T05:17:22.718Z,95720.00
2023-05-04T05:18:22.575Z,95722.00
2023-05-04T05:19:22.583Z,95718.00
2023-05-04T05:20:22.583Z,95722.00
2023-05-04T05:21:22.585Z,95718.00
2023-05-04T05:22:23.466Z,95720.00
2023-05-04T05:23:22.686Z,95722.00
2023-05-04T05:24:22.751Z,95718.00
2023-05-04T05:25:23.043Z,95720.00
2023-05-04T05:26:22.867Z,95718.00
2023-05-04T05:27:22.914Z,95718.00
2023-05-04T05:28:23.058Z,95716.00
2023-05-04T05:29:22.948Z,95716.00
2023-05-04T05:30:22.948Z,95718.00
2023-05-04T05:31:23.069Z,95718.00
2023-05-04T05:32:23.009Z,95716.00
2023-05-04T05:33:23.034Z,95716.00
2023-05-04T05:34:23.024Z,95720.00
2023-05-04T05:35:23.052Z,95718.00
2023-05-04T05:36:23.067Z,95716.00
2023-05-04T05:37:23.549Z,95716.00
2023-05-04T05:38:23.191Z,95716.00
2023-05-04T05:39:23.233Z,95716.00
2023-05-04T05:40:23.246Z,95716.00
2023-05-04T05:41:23.245Z,95716.00
2023-05-04T05:42:23.251Z,95718.00
2023-05-04T05:43:23.564Z,95716.00
2023-05-04T05:44:23.272Z,95720.00
2023-05-04T05:45:23.331Z,95720.00
2023-05-04T05:46:39.079Z,95718.00
2023-05-04T05:47:23.381Z,95716.00
2023-05-04T05:48:23.573Z,95716.00
2023-05-04T05:49:23.389Z,95716.00
2023-05-04T05:50:26.505Z,95710.00
2023-05-04T05:51:38.912Z,95714.00
2023-05-04T05:52:23.529Z,95716.00
2023-05-04T05:53:23.553Z,95716.00
2023-05-04T05:54:55.611Z,95716.00
2023-05-04T05:55:23.668Z,95714.00
2023-05-04T05:56:23.540Z,95712.00
2023-05-04T05:57:26.467Z,95714.00
2023-05-04T05:58:23.242Z,95710.00
2023-05-04T05:59:23.218Z,95710.00
2023-05-04T06:00:23.217Z,95712.00
2023-05-04T06:01:26.753Z,95710.00
2023-05-04T06:02:26.838Z,95710.00
2023-05-04T06:03:30.717Z,95708.00
2023-05-04T06:06:39.829Z,95704.00
2023-05-04T06:07:26.293Z,95704.00
2023-05-04T06:08:30.455Z,95702.00
2023-05-04T06:09:23.562Z,95702.00
2023-05-04T06:10:23.011Z,95699.00
2023-05-04T06:11:22.981Z,95697.00
2023-05-04T06:12:26.254Z,95699.00
2023-05-04T06:13:22.916Z,95701.00
2023-05-04T06:14:23.272Z,95695.00
2023-05-04T06:15:23.161Z,95697.00
2023-05-04T06:16:22.894Z,95693.00
2023-05-04T06:17:23.081Z,95695.00
2023-05-04T06:18:22.778Z,95693.00
2023-05-04T06:19:22.709Z,95695.00
2023-05-04T06:20:23.681Z,95693.00
2023-05-04T06:21:22.666Z,95695.00
2023-05-04T06:22:23.901Z,95693.00
2023-05-04T06:23:23.028Z,95691.00
2023-05-04T06:24:25.773Z,95687.00
2023-05-04T06:25:22.509Z,95685.00
2023-05-04T06:26:22.453Z,95689.00
2023-05-04T06:27:24.174Z,95685.00
2023-05-04T06:28:22.375Z,95685.00
2023-05-04T06:29:22.328Z,95685.00
2023-05-04T06:30:22.378Z,95685.00
2023-05-04T06:31:22.304Z,95681.00
2023-05-04T06:32:22.753Z,95683.00
2023-05-04T06:33:22.204Z,95679.00
2023-05-04T06:34:22.126Z,95681.00
2023-05-04T06:35:22.100Z,95681.00
2023-05-04T06:36:22.054Z,95679.00
2023-05-04T06:37:22.051Z,95681.00
2023-05-04T06:38:22.054Z,95677.00
2023-05-04T06:39:21.908Z,95677.00
2023-05-04T06:40:21.883Z,95679.00
2023-05-04T06:41:22.028Z,95677.00
2023-05-04T06:42:21.778Z,95671.00
2023-05-04T06:43:21.715Z,95673.00
2023-05-04T06:44:21.675Z,95675.00
2023-05-04T06:45:29.074Z,95673.00
2023-05-04T06:46:22.055Z,95673.00
2023-05-04T06:47:21.518Z,95675.00
2023-05-04T06:49:21.416Z,95675.00
2023-05-04T06:50:21.636Z,95673.00
2023-05-04T06:51:21.551Z,95673.00
2023-05-04T06:52:21.225Z,95673.00
2023-05-04T06:53:21.431Z,95673.00
2023-05-04T06:54:21.232Z,95671.00
2023-05-04T06:55:21.050Z,95671.00
2023-05-04T06:56:23.890Z,95671.00
2023-05-04T06:57:20.926Z,95671.00
2023-05-04T06:58:20.875Z,95673.00
2023-05-04T06:59:20.818Z,95663.00
2023-05-04T07:00:20.764Z,95661.00
2023-05-04T07:01:21.890Z,95659.00
2023-05-04T07:02:20.827Z,95657.00
2023-05-04T07:03:20.655Z,95656.00
2023-05-04T07:04:20.551Z,95656.00
2023-05-04T07:05:20.509Z,95656.00
2023-05-04T07:06:20.444Z,95656.00
2023-05-04T07:07:20.539Z,95656.00
2023-05-04T07:08:20.365Z,95648.00
2023-05-04T07:09:20.603Z,95650.00
2023-05-04T07:10:27.752Z,95650.00
2023-05-04T07:11:20.190Z,95650.00
2023-05-04T07:12:20.140Z,95652.00
2023-05-04T07:13:21.538Z,95650.00
2023-05-04T07:14:20.067Z,95652.00
2023-05-04T07:15:20.006Z,95646.00
2023-05-04T07:16:20.103Z,95648.00
2023-05-04T07:17:19.902Z,95646.00
2023-05-04T07:18:20.036Z,95648.00
2023-05-04T07:19:19.812Z,95648.00
2023-05-04T07:20:19.737Z,95648.00
2023-05-04T07:21:27.622Z,95646.00
2023-05-04T07:22:19.568Z,95648.00
2023-05-04T07:23:19.552Z,95644.00
2023-05-04T07:24:19.402Z,95642.00
2023-05-04T07:25:19.318Z,95644.00
2023-05-04T07:26:19.575Z,95646.00
2023-05-04T07:27:19.218Z,95646.00
2023-05-04T07:28:19.104Z,95646.00
2023-05-04T07:29:19.032Z,95642.00
2023-05-04T07:30:19.034Z,95642.00
2023-05-04T07:31:18.938Z,95636.00
2023-05-04T07:32:18.967Z,95638.00
2023-05-04T07:33:18.867Z,95634.00
2023-05-04T07:34:19.280Z,95632.00
2023-05-04T07:35:19.723Z,95630.00
2023-05-04T07:36:18.829Z,95632.00
2023-05-04T07:37:19.106Z,95630.00
2023-05-04T07:38:19.970Z,95624.00
2023-05-04T07:39:18.807Z,95626.00
2023-05-04T07:40:18.688Z,95624.00
2023-05-04T07:41:18.640Z,95624.00
2023-05-04T07:42:19.191Z,95620.00
2023-05-04T07:43:18.710Z,95620.00
2023-05-04T07:44:18.671Z,95620.00
2023-05-04T07:45:18.415Z,95616.00
2023-05-04T07:46:18.531Z,95614.00
2023-05-04T07:47:18.589Z,95610.00
2023-05-04T07:48:18.356Z,95610.00
2023-05-04T07:49:50.433Z,95610.00
2023-05-04T07:50:25.735Z,95606.00
2023-05-04T07:51:18.143Z,95608.00
2023-05-04T07:52:18.048Z,95606.00
2023-05-04T07:53:18.118Z,95601.00
2023-05-04T07:54:17.882Z,95602.00
2023-05-04T07:55:17.830Z,95599.00
2023-05-04T07:56:17.760Z,95599.00
2023-05-04T07:57:17.661Z,95597.00
2023-05-04T07:58:18.112Z,95597.00
2023-05-04T07:59:17.512Z,95593.00
2023-05-04T08:00:17.420Z,95589.00
2023-05-04T08:01:17.321Z,95593.00
2023-05-04T08:02:17.654Z,95587.00
2023-05-04T08:03:17.636Z,95587.00
2023-05-04T08:04:17.111Z,95591.00
2023-05-04T08:05:16.948Z,95587.00
2023-05-04T08:06:16.880Z,95583.00
2023-05-04T08:07:16.971Z,95583.00
2023-05-04T08:08:17.389Z,95583.00
2023-05-04T08:09:16.627Z,95583.00
2023-05-04T08:10:16.533Z,95581.00
2023-05-04T08:11:20.482Z,95581.00
2023-05-04T08:12:16.568Z,95577.00
2023-05-04T08:13:16.917Z,95579.00
2023-05-04T08:14:16.523Z,95577.00
2023-05-04T08:15:16.415Z,95579.00
2023-05-04T08:16:16.433Z,95573.00
2023-05-04T08:17:16.598Z,95573.00
2023-05-04T08:18:16.387Z,95571.00
2023-05-04T08:19:16.351Z,95571.00
2023-05-04T08:20:16.360Z,95571.00
2023-05-04T08:21:16.350Z,95571.00
2023-05-04T08:22:16.627Z,95571.00
2023-05-04T08:23:16.541Z,95569.00
2023-05-04T08:24:16.242Z,95567.00
2023-05-04T08:25:17.239Z,95563.00
2023-05-04T08:26:16.219Z,95563.00
2023-05-04T08:27:17.615Z,95563.00
2023-05-04T08:28:16.626Z,95563.00
2023-05-04T08:29:16.233Z,95565.00
2023-05-04T08:30:16.124Z,95567.00
2023-05-04T08:31:16.165Z,95563.00
2023-05-04T08:32:16.129Z,95561.00
2023-05-04T08:33:16.104Z,95563.00
2023-05-04T08:34:17.564Z,95561.00
2023-05-04T08:35:23.255Z,95559.00
2023-05-04T08:36:15.754Z,95563.00
2023-05-04T08:37:47.457Z,95561.00
2023-05-04T08:38:18.781Z,95559.00
2023-05-04T08:39:15.572Z,95561.00
2023-05-04T08:40:16.403Z,95557.00
2023-05-04T08:41:15.240Z,95557.00
2023-05-04T08:42:15.152Z,95555.00
2023-05-04T08:43:15.058Z,95550.00
2023-05-04T08:44:15.113Z,95554.00
2023-05-04T08:45:15.049Z,95550.00
2023-05-04T08:46:14.844Z,95550.00
2023-05-04T08:47:14.646Z,95548.00
2023-05-04T08:48:14.536Z,95548.00
2023-05-04T08:49:14.601Z,95548.00
2023-05-04T08:50:14.310Z,95548.00
2023-05-04T08:51:15.223Z,95546.00
2023-05-04T08:52:21.521Z,95546.00
2023-05-04T08:53:14.139Z,95546.00
2023-05-04T08:54:14.926Z,95542.00
2023-05-04T08:55:13.854Z,95542.00
2023-05-04T08:56:13.709Z,95542.00
2023-05-04T08:57:13.597Z,95542.00
2023-05-04T08:58:14.148Z,95538.00
2023-05-04T08:59:13.583Z,95540.00
2023-05-04T09:00:13.256Z,95542.00
2023-05-04T09:01:13.262Z,95540.00
2023-05-04T09:02:13.074Z,95540.00
2023-05-04T09:03:12.958Z,95536.00
2023-05-04T09:04:12.792Z,95538.00
2023-05-04T09:05:13.122Z,95538.00
2023-05-04T09:06:12.663Z,95534.00
2023-05-04T09:07:12.455Z,95536.00
2023-05-04T09:08:12.436Z,95532.00
2023-05-04T09:09:12.335Z,95532.00
2023-05-04T09:10:12.318Z,95528.00
2023-05-04T09:11:12.577Z,95530.00
2023-05-04T09:12:12.085Z,95530.00
2023-05-04T09:13:12.148Z,95530.00
2023-05-04T09:14:12.099Z,95530.00
2023-05-04T09:15:12.427Z,95530.00
2023-05-04T09:16:13.386Z,95528.00
2023-05-04T09:17:11.749Z,95526.00
2023-05-04T09:18:12.284Z,95524.00
2023-05-04T09:19:11.526Z,95522.00
2023-05-04T09:20:11.418Z,95522.00
2023-05-04T09:21:12.210Z,95522.00
2023-05-04T09:22:11.233Z,95518.00
2023-05-04T09:23:11.134Z,95514.00
2023-05-04T09:24:10.293Z,95516.00
2023-05-04T09:25:10.918Z,95512.00
2023-05-04T09:26:10.769Z,95508.00
2023-05-04T09:27:10.684Z,95512.00
2023-05-04T09:28:10.498Z,95512.00
2023-05-04T09:29:13.871Z,95512.00
2023-05-04T09:30:11.259Z,95508.00
2023-05-04T09:31:10.196Z,95505.00
2023-05-04T09:32:09.981Z,95505.00
2023-05-04T09:33:09.907Z,95507.00
2023-05-04T09:34:10.183Z,95505.00
2023-05-04T09:35:12.179Z,95507.00
2023-05-04T09:36:09.608Z,95503.00
2023-05-04T09:37:09.527Z,95507.00
2023-05-04T09:38:09.412Z,95505.00
2023-05-04T09:39:11.296Z,95503.00
2023-05-04T09:40:09.266Z,95505.00
2023-05-04T09:41:09.079Z,95503.00
2023-05-04T09:42:08.983Z,95505.00
2023-05-04T09:43:08.888Z,95501.00
2023-05-04T09:44:09.120Z,95501.00
2023-05-04T09:45:08.768Z,95497.00
2023-05-04T09:46:08.529Z,95495.00
2023-05-04T09:47:08.520Z,95497.00
2023-05-04T09:48:08.233Z,95497.00
2023-05-04T09:49:08.604Z,95495.00
2023-05-04T09:50:08.159Z,95493.00
2023-05-04T09:51:07.897Z,95489.00
2023-05-04T09:52:07.773Z,95491.00
2023-05-04T09:53:07.677Z,95483.00
2023-05-04T09:54:07.595Z,95481.00
2023-05-04T09:55:07.424Z,95487.00
2023-05-04T09:56:08.390Z,95481.00
2023-05-04T09:57:07.205Z,95479.00
2023-05-04T09:58:07.123Z,95481.00
2023-05-04T09:59:06.939Z,95477.00
2023-05-04T10:00:06.845Z,95473.00
2023-05-04T10:01:06.747Z,95475.00
2023-05-04T10:02:18.846Z,95471.00
2023-05-04T10:03:06.870Z,95473.00
2023-05-04T10:04:06.657Z,95465.00
2023-05-04T10:05:06.655Z,95467.00
2023-05-04T10:06:06.256Z,95465.00
2023-05-04T10:07:06.103Z,95465.00
2023-05-04T10:08:05.956Z,95461.00
2023-05-04T10:09:06.092Z,95458.00
2023-05-04T10:10:05.747Z,95460.00
2023-05-04T10:11:05.621Z,95458.00
2023-05-04T10:12:06.439Z,95454.00
2023-05-04T10:13:06.494Z,95452.00
2023-05-04T10:14:07.654Z,95452.00
2023-05-04T10:15:05.839Z,95450.00
2023-05-04T10:16:05.556Z,95450.00
2023-05-04T10:17:05.403Z,95446.00
2023-05-04T10:18:05.315Z,95444.00
2023-05-04T10:19:08.842Z,95442.00
2023-05-04T10:20:05.049Z,95440.00
2023-05-04T10:21:04.934Z,95438.00
2023-05-04T10:22:04.830Z,95440.00
2023-05-04T10:23:05.096Z,95440.00
2023-05-04T10:24:05.107Z,95432.00
2023-05-04T10:25:04.799Z,95432.00
2023-05-04T10:26:05.165Z,95434.00
2023-05-04T10:27:04.217Z,95430.00
2023-05-04T10:28:04.596Z,95428.00
2023-05-04T10:29:04.600Z,95428.00
2023-05-04T10:30:03.863Z,95428.00
2023-05-04T10:31:03.758Z,95426.00
2023-05-04T10:32:03.763Z,95426.00
2023-05-04T10:33:03.570Z,95424.00
2023-05-04T10:34:03.449Z,95422.00
2023-05-04T10:35:03.584Z,95422.00
2023-05-04T10:36:03.211Z,95418.00
2023-05-04T10:37:03.636Z,95416.00
2023-05-04T10:38:03.167Z,95405.00
2023-05-04T10:39:03.113Z,95405.00
2023-05-04T10:40:02.882Z,95401.00
2023-05-04T10:41:02.773Z,95403.00
2023-05-04T10:42:02.717Z,95401.00
2023-05-04T10:43:03.283Z,95393.00
2023-05-04T10:44:03.137Z,95397.00
2023-05-04T10:45:02.690Z,95395.00
2023-05-04T10:46:02.566Z,95397.00
2023-05-04T10:47:02.427Z,95393.00
2023-05-04T10:48:02.459Z,95391.00
2023-05-04T10:49:02.645Z,95391.00
2023-05-04T10:50:02.607Z,95389.00
2023-05-04T10:51:02.171Z,95385.00
2023-05-04T10:52:02.015Z,95379.00
2023-05-04T10:53:01.945Z,95377.00
2023-05-04T10:54:01.976Z,95373.00
2023-05-04T10:55:02.322Z,95377.00
2023-05-04T10:56:01.698Z,95375.00
2023-05-04T10:57:01.662Z,95373.00
2023-05-04T10:58:01.632Z,95373.00
2023-05-04T10:59:01.563Z,95367.00
2023-05-04T11:00:01.642Z,95365.00
2023-05-04T11:01:01.534Z,95365.00
2023-05-04T11:02:01.603Z,95360.00
2023-05-04T11:03:01.710Z,95360.00
2023-05-04T11:04:01.253Z,95360.00
2023-05-04T11:05:01.199Z,95358.00
2023-05-04T11:06:01.076Z,95358.00
2023-05-04T11:07:01.053Z,95358.00
2023-05-04T11:08:01.113Z,95356.00
2023-05-04T11:09:01.162Z,95356.00
2023-05-04T11:10:00.857Z,95354.00
2023-05-04T11:11:00.783Z,95354.00
2023-05-04T11:12:00.728Z,95350.00
2023-05-04T11:13:00.840Z,95352.00
2023-05-04T11:14:00.621Z,95350.00
2023-05-04T11:15:00.498Z,95352.00
2023-05-04T11:16:00.609Z,95350.00
2023-05-04T11:17:00.349Z,95344.00
2023-05-04T11:18:00.309Z,95344.00
2023-05-04T11:19:00.624Z,95348.00
2023-05-04T11:20:00.191Z,95342.00
2023-05-04T11:21:00.147Z,95346.00
2023-05-04T11:22:00.114Z,95338.00
2023-05-04T11:23:00.053Z,95340.00
2023-05-04T11:24:00.160Z,95334.00
2023-05-04T11:24:59.997Z,95342.00
2023-05-04T11:26:00.161Z,95334.00
2023-05-04T11:27:00.145Z,95330.00
2023-05-04T11:27:59.932Z,95332.00
2023-05-04T11:28:59.882Z,95330.00
2023-05-04T11:29:59.843Z,95330.00
2023-05-04T11:30:59.823Z,95330.00
2023-05-04T11:31:59.788Z,95326.00
2023-05-04T11:32:59.770Z,95328.00
2023-05-04T11:33:59.665Z,95322.00
2023-05-04T11:34:59.609Z,95324.00
2023-05-04T11:35:59.536Z,95322.00
2023-05-04T11:36:59.447Z,95322.00
2023-05-04T11:37:59.389Z,95320.00
2023-05-04T11:38:59.624Z,95318.00
2023-05-04T11:39:59.229Z,95318.00
2023-05-04T11:40:59.189Z,95318.00
2023-05-04T11:41:59.148Z,95314.00
2023-05-04T11:42:59.075Z,95314.00
2023-05-04T11:43:58.966Z,95313.00
2023-05-04T11:45:00.402Z,95309.00
2023-05-04T11:45:59.006Z,95307.00
2023-05-04T11:46:58.888Z,95311.00
2023-05-04T11:47:58.903Z,95305.00